createdAt,value
2019-03-19T00:01:57.237Z,97967.02
2019-03-19T00:04:24.110Z,97967.64
2019-03-19T00:06:54.215Z,97971.70
2019-03-19T00:09:21.171Z,97975.69
2019-03-19T00:11:47.770Z,97971.93
2019-03-19T00:14:16.638Z,97974.45
2019-03-19T00:16:45.163Z,97968.37
2019-03-19T00:22:04.221Z,97960.48
2019-03-19T00:24:33.380Z,97965.10
2019-03-19T00:27:02.285Z,97962.23
2019-03-19T00:29:30.050Z,97965.80
2019-03-19T00:32:03.366Z,97961.05
2019-03-19T00:34:33.530Z,97964.73
2019-03-19T00:37:02.700Z,97958.18
2019-03-19T00:39:31.708Z,97949.28
2019-03-19T00:41:59.317Z,97949.91
2019-03-19T00:44:31.023Z,97947.54
2019-03-19T00:47:02.726Z,97949.83
2019-03-19T00:49:34.195Z,97954.86
2019-03-19T00:52:01.377Z,97952.61
2019-03-19T00:54:34.582Z,97954.69
2019-03-19T00:57:05.494Z,97953.52
2019-03-19T00:59:34.984Z,97948.27
2019-03-19T01:02:09.322Z,97951.65
2019-03-19T01:04:35.823Z,97953.85
2019-03-19T01:07:04.984Z,97955.64
2019-03-19T01:09:32.780Z,97954.08
2019-03-19T01:12:03.984Z,97949.30
2019-03-19T01:14:32.419Z,97932.22
2019-03-19T01:17:01.763Z,97928.00
2019-03-19T01:19:31.347Z,97938.20
2019-03-19T01:21:59.324Z,97938.63
2019-03-19T01:24:27.983Z,97944.50
2019-03-19T01:26:54.837Z,97946.23
2019-03-19T01:29:31.805Z,97949.37
2019-03-19T01:31:55.671Z,97943.78
2019-03-19T01:34:22.465Z,97938.43
2019-03-19T01:36:52.632Z,97934.57
2019-03-19T01:39:26.096Z,97932.09
2019-03-19T01:41:56.809Z,97934.51
2019-03-19T01:44:37.554Z,97928.98
2019-03-19T01:47:04.269Z,97930.42
2019-03-19T01:49:34.624Z,97930.42
2019-03-19T01:52:04.627Z,97930.03
2019-03-19T01:54:32.786Z,97931.52
2019-03-19T01:57:00.390Z,97937.62
2019-03-19T01:59:28.445Z,97927.11
2019-03-19T02:01:55.633Z,97928.94
2019-03-19T02:04:23.480Z,97935.69
2019-03-19T02:06:52.539Z,97941.05
2019-03-19T02:09:19.177Z,97935.19
2019-03-19T02:11:45.809Z,97940.76
2019-03-19T02:14:12.492Z,97936.33
2019-03-19T02:16:39.374Z,97942.11
2019-03-19T02:19:07.263Z,97944.73
2019-03-19T02:21:33.899Z,97947.30
2019-03-19T02:24:00.509Z,97953.62
2019-03-19T02:26:27.411Z,97946.89
2019-03-19T02:28:54.214Z,97940.66
2019-03-19T02:31:20.843Z,97948.74
2019-03-19T02:33:47.794Z,97952.28
2019-03-19T02:36:15.810Z,97954.08
2019-03-19T02:38:42.503Z,97957.36
2019-03-19T02:41:09.398Z,97957.73
2019-03-19T02:43:36.400Z,97967.89
2019-03-19T02:46:03.301Z,97965.66
2019-03-19T02:48:29.983Z,97957.61
2019-03-19T02:50:56.636Z,97963.91
2019-03-19T02:53:23.318Z,97965.59
2019-03-19T02:55:50.073Z,97968.91
2019-03-19T02:58:16.965Z,97968.60
2019-03-19T03:00:43.685Z,97968.03
2019-03-19T03:03:10.388Z,97973.69
2019-03-19T03:05:37.114Z,97974.22
2019-03-19T03:08:04.004Z,97973.91
2019-03-19T03:10:30.809Z,97972.80
2019-03-19T03:13:02.071Z,97969.86
2019-03-19T03:15:34.590Z,97973.09
2019-03-19T03:18:06.941Z,97972.39
2019-03-19T03:20:36.430Z,97970.09
2019-03-19T03:23:05.336Z,97962.74
2019-03-19T03:25:33.037Z,97965.98
2019-03-19T03:28:02.433Z,97967.55
2019-03-19T03:30:32.188Z,97974.59
2019-03-19T03:33:02.890Z,97982.03
2019-03-19T03:35:30.944Z,97975.59
2019-03-19T03:37:58.589Z,97983.14
2019-03-19T03:40:26.317Z,97972.16
2019-03-19T03:42:53.544Z,97977.58
2019-03-19T03:45:24.779Z,97983.23
2019-03-19T03:47:54.497Z,97985.92
2019-03-19T03:50:24.753Z,97985.25
2019-03-19T03:52:57.936Z,97983.58
2019-03-19T03:55:25.415Z,97976.94
2019-03-19T03:58:00.051Z,97970.89
2019-03-19T04:00:29.788Z,97979.01
2019-03-19T04:03:02.636Z,97977.73
2019-03-19T04:05:32.380Z,97971.98
2019-03-19T04:10:44.491Z,97972.59
2019-03-19T04:13:11.307Z,97977.10
2019-03-19T04:15:38.186Z,97968.05
2019-03-19T04:18:05.112Z,97970.43
2019-03-19T04:20:31.823Z,97973.16
2019-03-19T04:22:58.570Z,97974.00
2019-03-19T04:25:25.330Z,97970.06
2019-03-19T04:27:52.002Z,97967.45
2019-03-19T04:30:18.869Z,97969.95
2019-03-19T04:32:45.770Z,97970.80
2019-03-19T04:35:12.599Z,97974.28
2019-03-19T04:37:39.451Z,97977.88
2019-03-19T04:40:06.332Z,97978.02
2019-03-19T04:42:32.914Z,97979.34
2019-03-19T04:44:59.823Z,97980.20
2019-03-19T04:47:27.881Z,97989.28
2019-03-19T04:49:54.576Z,97979.58
2019-03-19T04:52:21.195Z,97984.16
2019-03-19T04:54:48.090Z,97985.53
2019-03-19T04:57:26.028Z,97984.97
2019-03-19T04:59:43.237Z,97985.92
2019-03-19T05:02:09.899Z,97985.92
2019-03-19T05:04:36.493Z,97999.17
2019-03-19T05:07:03.731Z,98002.61
2019-03-19T05:09:30.506Z,98002.41
2019-03-19T05:11:57.155Z,98009.75
2019-03-19T05:14:25.095Z,98009.95
2019-03-19T05:16:51.793Z,98018.70
2019-03-19T05:19:18.370Z,98016.61
2019-03-19T05:21:44.983Z,98024.97
2019-03-19T05:24:11.662Z,98024.03
2019-03-19T05:26:38.366Z,98031.45
2019-03-19T05:29:05.265Z,98029.55
2019-03-19T05:31:31.915Z,98033.30
2019-03-19T05:33:58.537Z,98045.19
2019-03-19T05:36:25.568Z,98049.43
2019-03-19T05:38:53.204Z,98059.66
2019-03-19T05:41:21.079Z,98060.71
2019-03-19T05:43:47.681Z,98063.66
2019-03-19T05:46:14.442Z,98061.49
2019-03-19T05:48:41.253Z,98070.70
2019-03-19T05:51:08.178Z,98075.41
2019-03-19T05:53:36.104Z,98076.32
2019-03-19T05:56:04.266Z,98089.71
2019-03-19T05:58:30.870Z,98084.45
2019-03-19T06:00:57.821Z,98086.16
2019-03-19T06:03:24.754Z,98094.78
2019-03-19T06:05:51.971Z,98099.07
2019-03-19T06:08:24.492Z,98095.18
2019-03-19T06:13:39.026Z,98099.40
2019-03-19T06:16:09.667Z,98094.98
2019-03-19T06:18:36.956Z,98097.86
2019-03-19T06:21:04.272Z,98092.47
2019-03-19T06:23:35.020Z,98098.12
2019-03-19T06:26:10.281Z,98091.25
2019-03-19T06:31:24.123Z,98094.49
2019-03-19T06:33:53.932Z,98094.76
2019-03-19T06:36:21.581Z,98099.50
2019-03-19T06:38:52.115Z,98099.69
2019-03-19T06:41:21.551Z,98102.11
2019-03-19T06:43:52.221Z,98104.06
2019-03-19T06:46:18.752Z,98106.42
2019-03-19T06:48:50.327Z,98105.38
2019-03-19T06:51:18.270Z,98104.27
2019-03-19T06:53:49.469Z,98110.34
2019-03-19T06:56:16.621Z,98107.59
2019-03-19T06:58:44.242Z,98105.14
2019-03-19T07:01:11.981Z,98115.75
2019-03-19T07:03:57.486Z,98120.16
2019-03-19T07:06:25.941Z,98126.72
2019-03-19T07:08:52.863Z,98123.88
2019-03-19T07:11:39.034Z,98124.81
2019-03-19T07:14:08.791Z,98131.41
2019-03-19T07:16:39.534Z,98123.33
2019-03-19T07:19:09.030Z,98134.45
2019-03-19T07:21:37.005Z,98136.71
2019-03-19T07:24:21.198Z,98136.44
2019-03-19T07:26:48.034Z,98145.83
2019-03-19T07:29:18.961Z,98144.30
2019-03-19T07:31:46.342Z,98146.39
2019-03-19T07:34:18.325Z,98148.41
2019-03-19T07:36:46.045Z,98151.97
2019-03-19T07:42:00.784Z,98160.07
2019-03-19T07:44:31.629Z,98161.27
2019-03-19T07:46:58.846Z,98156.52
2019-03-19T07:49:30.106Z,98166.70
2019-03-19T07:51:56.779Z,98163.58
2019-03-19T07:54:26.097Z,98165.72
2019-03-19T07:56:53.733Z,98168.19
2019-03-19T07:59:20.639Z,98172.10
2019-03-19T08:01:51.840Z,98176.73
2019-03-19T08:04:26.487Z,98166.36
2019-03-19T08:06:54.400Z,98169.27
2019-03-19T08:09:23.941Z,98176.78
2019-03-19T08:11:53.099Z,98174.89
2019-03-19T08:14:19.894Z,98171.89
2019-03-19T08:16:49.508Z,98174.00
2019-03-19T08:22:05.005Z,98181.13
2019-03-19T08:24:33.761Z,98185.77
2019-03-19T08:27:00.982Z,98184.25
2019-03-19T08:29:30.559Z,98189.21
2019-03-19T08:35:01.224Z,98187.31
2019-03-19T08:37:29.129Z,98191.06
2019-03-19T08:39:59.175Z,98197.40
2019-03-19T08:42:29.220Z,98203.17
2019-03-19T08:44:58.445Z,98203.27
2019-03-19T08:47:33.130Z,98200.66
2019-03-19T08:50:03.448Z,98210.84
2019-03-19T08:52:30.312Z,98206.61
2019-03-19T08:55:01.240Z,98208.56
2019-03-19T08:57:30.151Z,98201.94
2019-03-19T08:59:58.048Z,98209.56
2019-03-19T09:02:25.754Z,98204.69
2019-03-19T09:04:53.465Z,98212.90
2019-03-19T09:07:24.662Z,98210.90
2019-03-19T09:09:53.495Z,98209.17
2019-03-19T09:12:20.256Z,98211.03
2019-03-19T09:14:54.087Z,98208.95
2019-03-19T09:17:21.638Z,98212.95
2019-03-19T09:19:54.869Z,98204.84
2019-03-19T09:22:29.583Z,98209.13
2019-03-19T09:24:58.648Z,98216.92
2019-03-19T09:27:28.187Z,98212.03
2019-03-19T09:30:01.744Z,98210.87
2019-03-19T09:32:34.959Z,98212.86
2019-03-19T09:35:04.541Z,98214.27
2019-03-19T09:37:32.736Z,98218.09
2019-03-19T09:40:03.824Z,98213.48
2019-03-19T09:42:38.114Z,98208.33
2019-03-19T09:45:06.530Z,98206.39
2019-03-19T09:47:38.581Z,98210.17
2019-03-19T09:50:06.340Z,98210.92
2019-03-19T09:52:37.718Z,98209.48
2019-03-19T09:55:09.742Z,98201.87
2019-03-19T09:57:41.526Z,98211.52
2019-03-19T10:00:09.461Z,98208.07
2019-03-19T10:02:43.692Z,98207.83
2019-03-19T10:05:14.375Z,98205.03
2019-03-19T10:07:44.535Z,98212.03
2019-03-19T10:10:12.456Z,98213.18
2019-03-19T10:12:43.317Z,98209.87
2019-03-19T10:15:11.688Z,98214.81
2019-03-19T10:17:42.269Z,98208.27
2019-03-19T10:20:13.293Z,98218.05
2019-03-19T10:22:41.122Z,98208.13
2019-03-19T10:27:58.392Z,98211.42
2019-03-19T10:30:26.379Z,98214.39
2019-03-19T10:32:54.271Z,98215.61
2019-03-19T10:35:21.719Z,98212.78
2019-03-19T10:37:53.354Z,98219.27
2019-03-19T10:40:21.235Z,98219.69
2019-03-19T10:42:49.588Z,98217.83
2019-03-19T10:45:20.549Z,98221.44
2019-03-19T10:47:48.224Z,98230.58
2019-03-19T10:50:14.644Z,98229.28
2019-03-19T10:52:43.351Z,98232.07
2019-03-19T10:55:13.930Z,98225.87
2019-03-19T10:57:43.657Z,98221.33
2019-03-19T11:00:11.103Z,98227.78
2019-03-19T11:02:38.912Z,98227.98
2019-03-19T11:05:07.347Z,98228.20
2019-03-19T11:07:34.304Z,98229.78
2019-03-19T11:10:01.235Z,98227.64
2019-03-19T11:12:28.861Z,98226.94
2019-03-19T11:14:55.615Z,98221.80
2019-03-19T11:17:22.364Z,98222.47
2019-03-19T11:19:49.818Z,98220.97
2019-03-19T11:22:19.132Z,98224.68
2019-03-19T11:24:45.951Z,98219.29
2019-03-19T11:27:12.681Z,98221.95
2019-03-19T11:29:39.353Z,98215.25
2019-03-19T11:32:06.318Z,98214.34
2019-03-19T11:34:33.740Z,98213.99
2019-03-19T11:37:00.465Z,98207.27
2019-03-19T11:39:27.102Z,98203.32
2019-03-19T11:41:53.897Z,98204.68
2019-03-19T11:44:20.907Z,98204.20
2019-03-19T11:46:47.517Z,98209.52
2019-03-19T11:49:14.172Z,98206.27
2019-03-19T11:51:41.057Z,98209.55
2019-03-19T11:54:09.026Z,98202.30
2019-03-19T11:56:35.676Z,98199.01
2019-03-19T11:59:02.432Z,98200.52
2019-03-19T12:01:29.055Z,98199.30
2019-03-19T12:03:56.014Z,98194.59
2019-03-19T12:06:22.916Z,98190.16
2019-03-19T12:09:00.291Z,98193.73
2019-03-19T12:11:28.316Z,98193.73
2019-03-19T12:14:00.706Z,98193.05
2019-03-19T12:16:27.410Z,98188.71
2019-03-19T12:18:54.132Z,98192.73
2019-03-19T12:21:21.047Z,98185.23
2019-03-19T12:23:47.716Z,98185.16
2019-03-19T12:26:14.710Z,98187.01
2019-03-19T12:28:41.649Z,98186.63
2019-03-19T12:31:09.563Z,98184.62
2019-03-19T12:33:40.793Z,98177.79
2019-03-19T12:36:05.186Z,98177.09
2019-03-19T12:38:31.801Z,98173.88
2019-03-19T12:40:58.460Z,98176.88
2019-03-19T12:43:25.166Z,98179.66
2019-03-19T12:45:53.155Z,98190.59
2019-03-19T12:48:20.096Z,98191.03
2019-03-19T12:50:46.879Z,98189.02
2019-03-19T12:53:13.820Z,98183.72
2019-03-19T12:55:40.490Z,98178.91
2019-03-19T12:58:07.158Z,98179.55
2019-03-19T13:00:35.010Z,98179.79
2019-03-19T13:03:01.842Z,98177.13
2019-03-19T13:05:28.531Z,98181.00
2019-03-19T13:07:55.207Z,98180.91
2019-03-19T13:10:22.078Z,98182.23
2019-03-19T13:12:48.823Z,98186.63
2019-03-19T13:15:15.471Z,98188.85
2019-03-19T13:17:42.132Z,98187.10
2019-03-19T13:20:08.738Z,98185.89
2019-03-19T13:22:35.712Z,98191.64
2019-03-19T13:25:02.719Z,98184.67
2019-03-19T13:27:29.327Z,98183.50
2019-03-19T13:29:56.191Z,98184.12
2019-03-19T13:32:22.997Z,98181.16
2019-03-19T13:34:49.650Z,98189.23
2019-03-19T13:37:16.496Z,98186.05
2019-03-19T13:39:44.757Z,98187.26
2019-03-19T13:42:11.414Z,98185.88
2019-03-19T13:44:38.314Z,98189.20
2019-03-19T13:47:06.165Z,98190.58
2019-03-19T13:49:32.863Z,98196.85
2019-03-19T13:51:59.775Z,98189.73
2019-03-19T13:54:27.862Z,98192.88
2019-03-19T13:56:54.652Z,98191.02
2019-03-19T13:59:21.560Z,98196.33
2019-03-19T14:01:48.201Z,98186.43
2019-03-19T14:04:14.875Z,98184.17
2019-03-19T14:06:42.068Z,98183.06
2019-03-19T14:09:13.368Z,98181.81
2019-03-19T14:11:40.316Z,98188.63
2019-03-19T14:14:08.955Z,98184.28
2019-03-19T14:16:39.557Z,98181.11
2019-03-19T14:19:07.411Z,98185.48
2019-03-19T14:21:34.878Z,98187.81
2019-03-19T14:24:05.429Z,98198.45
2019-03-19T14:26:39.060Z,98197.45
2019-03-19T14:29:10.632Z,98195.94
2019-03-19T14:31:38.508Z,98201.86
2019-03-19T14:34:06.497Z,98203.95
2019-03-19T14:36:34.988Z,98206.85
2019-03-19T14:39:04.731Z,98207.02
2019-03-19T14:41:32.039Z,98212.47
2019-03-19T14:44:03.198Z,98209.13
2019-03-19T14:46:32.220Z,98214.61
2019-03-19T14:49:02.111Z,98220.16
2019-03-19T14:51:36.172Z,98223.11
2019-03-19T14:54:02.211Z,98235.98
2019-03-19T14:56:30.819Z,98235.36
2019-03-19T14:58:58.811Z,98247.84
2019-03-19T15:01:28.937Z,98240.80
2019-03-19T15:03:55.700Z,98256.27
2019-03-19T15:06:22.553Z,98255.13
2019-03-19T15:08:49.433Z,98255.52
2019-03-19T15:11:16.310Z,98262.48
2019-03-19T15:13:43.295Z,98271.00
2019-03-19T15:16:10.126Z,98272.33
2019-03-19T15:18:36.968Z,98271.37
2019-03-19T15:21:03.616Z,98267.60
2019-03-19T15:23:30.300Z,98263.32
2019-03-19T15:25:59.253Z,98268.72
2019-03-19T15:28:25.799Z,98257.98
2019-03-19T15:30:52.504Z,98266.18
2019-03-19T15:33:19.106Z,98263.82
2019-03-19T15:35:45.730Z,98266.59
2019-03-19T15:38:13.029Z,98269.69
2019-03-19T15:40:39.660Z,98282.06
2019-03-19T15:43:07.482Z,98293.02
2019-03-19T15:45:34.298Z,98297.32
2019-03-19T15:48:01.209Z,98303.88
2019-03-19T15:50:27.788Z,98309.97
2019-03-19T15:52:54.726Z,98304.58
2019-03-19T15:55:21.434Z,98307.38
2019-03-19T15:57:48.062Z,98309.01
2019-03-19T16:00:14.879Z,98308.37
2019-03-19T16:02:41.792Z,98309.83
2019-03-19T16:05:08.710Z,98314.75
2019-03-19T16:07:38.090Z,98324.30
2019-03-19T16:10:06.437Z,98328.23
2019-03-19T16:12:34.033Z,98330.20
2019-03-19T16:17:50.653Z,98333.58
2019-03-19T16:20:20.565Z,98339.20
2019-03-19T16:22:51.494Z,98330.95
2019-03-19T16:25:21.275Z,98331.72
2019-03-19T16:27:56.721Z,98333.18
2019-03-19T16:30:20.812Z,98333.49
2019-03-19T16:32:49.431Z,98337.13
2019-03-19T16:35:16.114Z,98339.13
2019-03-19T16:37:48.959Z,98344.44
2019-03-19T16:40:21.764Z,98346.58
2019-03-19T16:42:50.098Z,98344.90
2019-03-19T16:45:23.507Z,98351.98
2019-03-19T16:47:51.934Z,98347.14
2019-03-19T16:50:22.906Z,98344.84
2019-03-19T16:52:52.283Z,98356.74
2019-03-19T16:55:24.719Z,98366.30
2019-03-19T16:57:53.623Z,98368.67
2019-03-19T17:00:24.608Z,98375.27
2019-03-19T17:02:52.755Z,98375.27
2019-03-19T17:05:19.637Z,98380.70
2019-03-19T17:07:46.402Z,98389.91
2019-03-19T17:10:13.232Z,98392.05
2019-03-19T17:12:41.960Z,98390.07
2019-03-19T17:15:08.509Z,98387.77
2019-03-19T17:17:35.418Z,98391.68
2019-03-19T17:20:02.188Z,98398.00
2019-03-19T17:22:28.856Z,98401.85
2019-03-19T17:24:55.532Z,98405.64
2019-03-19T17:27:23.080Z,98411.10
2019-03-19T17:29:49.832Z,98417.69
2019-03-19T17:32:16.477Z,98419.63
2019-03-19T17:34:43.155Z,98420.63
2019-03-19T17:37:09.828Z,98422.26
2019-03-19T17:39:36.755Z,98429.67
2019-03-19T17:42:03.378Z,98430.16
2019-03-19T17:44:30.016Z,98433.43
2019-03-19T17:46:57.092Z,98445.87
2019-03-19T17:49:23.859Z,98450.67
2019-03-19T17:51:50.811Z,98453.45
2019-03-19T17:54:19.062Z,98454.13
2019-03-19T17:56:45.681Z,98464.20
2019-03-19T17:59:12.358Z,98466.47
2019-03-19T18:01:39.305Z,98458.90
2019-03-19T18:04:06.063Z,98472.15
2019-03-19T18:06:32.983Z,98480.95
2019-03-19T18:11:45.620Z,98483.64
2019-03-19T18:14:12.220Z,98486.34
2019-03-19T18:16:39.577Z,98489.59
2019-03-19T18:19:06.701Z,98494.42
2019-03-19T18:21:33.538Z,98500.99
2019-03-19T18:24:00.530Z,98498.15
2019-03-19T18:28:59.992Z,98511.16
2019-03-19T18:31:27.060Z,98511.72
2019-03-19T18:34:15.197Z,98514.98
2019-03-19T18:36:43.735Z,98518.42
2019-03-19T18:39:11.179Z,98530.33
2019-03-19T18:41:37.949Z,98526.34
2019-03-19T18:44:06.237Z,98534.62
2019-03-19T18:46:32.889Z,98529.48
2019-03-19T18:48:59.596Z,98535.68
2019-03-19T18:51:26.631Z,98537.48
2019-03-19T18:53:53.397Z,98535.45
2019-03-19T18:56:20.063Z,98535.45
2019-03-19T18:58:46.995Z,98538.84
2019-03-19T19:01:13.721Z,98546.26
2019-03-19T19:03:40.855Z,98539.99
2019-03-19T19:06:07.755Z,98547.20
2019-03-19T19:08:34.397Z,98544.23
2019-03-19T19:11:01.103Z,98539.77
2019-03-19T19:13:27.780Z,98539.29
2019-03-19T19:15:54.605Z,98536.95
2019-03-19T19:18:21.397Z,98539.27
2019-03-19T19:20:48.498Z,98541.62
2019-03-19T19:23:15.170Z,98543.46
2019-03-19T19:25:41.940Z,98546.55
2019-03-19T19:28:09.369Z,98554.69
2019-03-19T19:30:36.275Z,98555.55
2019-03-19T19:33:03.213Z,98556.45
2019-03-19T19:35:30.061Z,98554.13
2019-03-19T19:37:56.889Z,98558.27
2019-03-19T19:40:23.509Z,98557.86
2019-03-19T19:42:50.136Z,98562.33
2019-03-19T19:45:17.359Z,98562.84
2019-03-19T19:47:44.508Z,98562.52
2019-03-19T19:50:11.817Z,98564.62
2019-03-19T19:52:38.549Z,98561.64
2019-03-19T19:55:05.197Z,98568.48
2019-03-19T19:57:32.792Z,98573.63
2019-03-19T20:00:01.748Z,98563.75
2019-03-19T20:02:28.104Z,98563.25
2019-03-19T20:05:03.003Z,98569.88
2019-03-19T20:07:23.734Z,98568.72
2019-03-19T20:09:50.695Z,98565.55
2019-03-19T20:12:17.648Z,98568.48
2019-03-19T20:14:46.935Z,98569.89
2019-03-19T20:19:59.763Z,98565.88
2019-03-19T20:22:32.429Z,98575.42
2019-03-19T20:24:59.661Z,98573.86
2019-03-19T20:27:26.765Z,98579.36
2019-03-19T20:29:53.569Z,98586.35
2019-03-19T20:32:20.216Z,98585.92
2019-03-19T20:34:46.843Z,98589.34
2019-03-19T20:37:13.738Z,98586.58
2019-03-19T20:39:40.671Z,98595.43
2019-03-19T20:42:07.596Z,98586.42
2019-03-19T20:44:34.852Z,98590.98
2019-03-19T20:47:01.493Z,98598.76
2019-03-19T20:49:28.724Z,98599.41
2019-03-19T20:51:55.536Z,98605.13
2019-03-19T20:54:22.221Z,98601.34
2019-03-19T20:56:49.445Z,98606.72
2019-03-19T20:59:16.432Z,98610.62
2019-03-19T21:01:43.116Z,98613.08
2019-03-19T21:04:10.610Z,98611.86
2019-03-19T21:06:37.564Z,98613.93
2019-03-19T21:09:05.493Z,98617.00
2019-03-19T21:11:32.182Z,98619.07
2019-03-19T21:13:59.989Z,98623.06
2019-03-19T21:16:29.380Z,98622.80
2019-03-19T21:18:57.243Z,98619.12
2019-03-19T21:21:24.140Z,98615.94
2019-03-19T21:23:50.723Z,98617.15
2019-03-19T21:26:17.476Z,98615.02
2019-03-19T21:28:45.420Z,98628.45
2019-03-19T21:31:12.017Z,98627.51
2019-03-19T21:33:50.467Z,98629.64
2019-03-19T21:36:08.471Z,98628.24
2019-03-19T21:38:35.184Z,98632.26
2019-03-19T21:41:02.288Z,98636.69
2019-03-19T21:43:28.923Z,98641.18
2019-03-19T21:45:55.519Z,98637.41
2019-03-19T21:48:22.537Z,98631.02
2019-03-19T21:50:49.244Z,98632.70
2019-03-19T21:53:17.169Z,98638.63
2019-03-19T21:55:46.422Z,98644.80
2019-03-19T21:58:14.025Z,98651.41
2019-03-19T22:00:41.753Z,98655.42
2019-03-19T22:03:09.124Z,98654.42
2019-03-19T22:05:36.722Z,98658.98
2019-03-19T22:08:03.349Z,98653.00
2019-03-19T22:10:30.783Z,98660.36
2019-03-19T22:12:58.390Z,98659.83
2019-03-19T22:15:25.016Z,98660.81
2019-03-19T22:20:24.336Z,98661.70
2019-03-19T22:22:51.120Z,98662.40
2019-03-19T22:25:17.733Z,98667.21
2019-03-19T22:27:45.563Z,98676.61
2019-03-19T22:30:12.163Z,98678.08
2019-03-19T22:32:39.108Z,98681.99
2019-03-19T22:35:05.701Z,98685.39
2019-03-19T22:37:32.349Z,98680.59
2019-03-19T22:39:59.597Z,98677.44
2019-03-19T22:42:26.203Z,98682.30
2019-03-19T22:44:52.803Z,98680.23
2019-03-19T22:47:19.456Z,98691.97
2019-03-19T22:49:46.040Z,98690.54
2019-03-19T22:52:12.918Z,98688.20
2019-03-19T22:54:39.764Z,98691.97
2019-03-19T22:57:06.634Z,98697.30
2019-03-19T22:59:39.712Z,98697.17
2019-03-19T23:02:07.099Z,98708.84
2019-03-19T23:04:36.910Z,98708.28
2019-03-19T23:07:07.385Z,98707.17
2019-03-19T23:09:35.049Z,98701.57
2019-03-19T23:12:01.953Z,98711.06
2019-03-19T23:14:30.685Z,98714.75
2019-03-19T23:17:04.903Z,98711.24
2019-03-19T23:22:19.860Z,98709.64
2019-03-19T23:24:49.332Z,98709.69
2019-03-19T23:27:20.270Z,98718.02
2019-03-19T23:29:51.634Z,98722.71
2019-03-19T23:32:20.043Z,98727.67
2019-03-19T23:34:51.067Z,98722.90
2019-03-19T23:40:05.257Z,98731.79
2019-03-19T23:42:33.076Z,98731.11
2019-03-19T23:45:05.673Z,98731.13
2019-03-19T23:47:34.251Z,98739.39
2019-03-19T23:50:03.931Z,98729.12
2019-03-19T23:52:32.338Z,98725.80
2019-03-19T23:55:03.302Z,98736.80
2019-03-19T23:57:34.717Z,98734.26
